Time;durP1;ratioP1;P1;durP2;ratioP2;P2;SDS_P1;SDS_P2;PMS_P1;PMS_P2;Temp;Humidity;BMP_temperature;BMP_pressure;BME280_temperature;BME280_humidity;BME280_pressure;Samples;Min_cycle;Max_cycle;Signal;HPM_P1;HPM_P2
2021/07/10 00:00:33;;;;;;;9.95;5.58;;;14.20;99.90;;;;;;1903172;74;21049;-75
2021/07/10 00:02:58;;;;;;;11.80;5.58;;;14.20;99.90;;;;;;1898762;75;21139;-76
2021/07/10 00:05:24;;;;;;;11.38;5.67;;;14.20;99.90;;;;;;1893953;75;21085;-75
2021/07/10 00:07:50;;;;;;;8.23;6.20;;;14.20;99.90;;;;;;1899039;75;21081;-75
2021/07/10 00:10:17;;;;;;;7.95;6.08;;;14.20;99.90;;;;;;1898970;75;21521;-75
2021/07/10 00:12:43;;;;;;;9.20;5.83;;;14.20;99.90;;;;;;1898974;75;21082;-75
2021/07/10 00:15:09;;;;;;;11.60;5.53;;;14.20;99.90;;;;;;1898959;75;21046;-75
2021/07/10 00:17:35;;;;;;;8.13;5.47;;;14.10;99.90;;;;;;1898990;75;21080;-76
2021/07/10 00:20:01;;;;;;;8.10;5.42;;;14.10;99.90;;;;;;1899005;75;21146;-76
2021/07/10 00:22:27;;;;;;;9.30;5.35;;;14.10;99.90;;;;;;1898977;75;21082;-76
2021/07/10 00:24:53;;;;;;;6.83;5.35;;;14.10;99.90;;;;;;1898971;75;21076;-76
2021/07/10 00:27:19;;;;;;;6.15;5.55;;;14.10;99.90;;;;;;1898960;75;21081;-76
2021/07/10 00:29:46;;;;;;;12.15;6.10;;;14.00;99.90;;;;;;1898949;75;21045;-76
2021/07/10 00:32:12;;;;;;;9.63;5.47;;;14.00;99.90;;;;;;1899050;75;21050;-76
2021/07/10 00:34:38;;;;;;;13.00;5.25;;;14.00;99.90;;;;;;1898949;75;21155;-76
2021/07/10 00:37:06;;;;;;;5.72;5.15;;;13.90;99.90;;;;;;1899054;75;21162;-76
2021/07/10 00:39:32;;;;;;;10.25;5.60;;;13.90;99.90;;;;;;1898859;75;21154;-76
2021/07/10 00:41:58;;;;;;;9.85;5.92;;;13.90;99.90;;;;;;1898956;75;21049;-76
2021/07/10 00:44:24;;;;;;;11.40;5.28;;;13.90;99.90;;;;;;1898922;75;21084;-76
2021/07/10 00:46:50;;;;;;;5.90;5.03;;;13.80;99.90;;;;;;1899045;75;21202;-76
2021/07/10 00:49:17;;;;;;;8.65;5.58;;;13.80;99.90;;;;;;1898875;75;21077;-76
2021/07/10 00:51:44;;;;;;;8.00;6.17;;;13.80;99.90;;;;;;1899022;75;21458;-76
2021/07/10 00:54:10;;;;;;;9.53;5.85;;;13.80;99.90;;;;;;1898847;75;21089;-76
2021/07/10 00:56:36;;;;;;;7.65;5.40;;;13.70;99.90;;;;;;1899031;75;21077;-76
2021/07/10 00:59:02;;;;;;;8.03;5.37;;;13.70;99.90;;;;;;1898966;75;21166;-76
2021/07/10 01:01:28;;;;;;;13.05;5.47;;;13.70;99.90;;;;;;1898943;75;21076;-76
2021/07/10 01:03:54;;;;;;;16.87;6.08;;;13.70;99.90;;;;;;1899001;75;21053;-75
2021/07/10 01:06:20;;;;;;;10.50;5.42;;;13.60;99.90;;;;;;1899031;75;21128;-76
2021/07/10 01:08:48;;;;;;;7.17;5.50;;;13.60;99.90;;;;;;1899037;75;21076;-75
2021/07/10 01:11:14;;;;;;;8.53;5.87;;;13.60;99.90;;;;;;1898928;75;21513;-75
2021/07/10 01:13:40;;;;;;;6.72;6.10;;;13.60;99.90;;;;;;1899045;75;21089;-76
2021/07/10 01:16:06;;;;;;;12.23;6.35;;;13.70;99.90;;;;;;1898931;75;21127;-76
2021/07/10 01:18:32;;;;;;;13.75;6.00;;;13.60;99.90;;;;;;1898928;75;21081;-76
2021/07/10 01:20:58;;;;;;;10.80;7.12;;;13.50;99.90;;;;;;1898952;75;21073;-76
2021/07/10 01:23:25;;;;;;;8.48;6.75;;;13.50;99.90;;;;;;1898997;75;21050;-75
2021/07/10 01:25:51;;;;;;;15.00;8.63;;;13.60;99.90;;;;;;1898934;75;21132;-76
2021/07/10 01:28:17;;;;;;;14.98;8.33;;;13.60;99.90;;;;;;1899005;75;21489;-75
2021/07/10 01:30:43;;;;;;;16.95;9.08;;;13.70;99.90;;;;;;1897251;75;21558;-76
2021/07/10 01:33:09;;;;;;;15.32;9.35;;;13.70;99.90;;;;;;1899112;75;21498;-75
2021/07/10 01:35:35;;;;;;;14.50;9.98;;;13.80;99.90;;;;;;1899461;75;21461;-76
2021/07/10 01:38:01;;;;;;;15.38;9.63;;;13.80;99.90;;;;;;1902399;74;21382;-76
2021/07/10 01:40:28;;;;;;;19.70;10.45;;;13.90;99.90;;;;;;1902045;74;21037;-76
2021/07/10 01:42:54;;;;;;;27.02;11.33;;;13.90;99.90;;;;;;1898979;75;21569;-75
2021/07/10 01:45:20;;;;;;;15.23;9.80;;;13.90;99.90;;;;;;1899516;75;21516;-76
2021/07/10 01:47:46;;;;;;;13.15;9.55;;;14.00;99.90;;;;;;1899503;75;21093;-76
2021/07/10 01:50:13;;;;;;;14.20;9.63;;;14.00;99.90;;;;;;1898993;75;21076;-76
2021/07/10 01:52:39;;;;;;;17.45;8.85;;;14.10;99.90;;;;;;1899086;75;21049;-76
2021/07/10 01:55:05;;;;;;;19.57;9.98;;;14.20;99.90;;;;;;1912882;74;21182;-75
2021/07/10 01:57:31;;;;;;;15.45;9.93;;;14.20;99.90;;;;;;1899106;75;21167;-75
2021/07/10 01:59:57;;;;;;;15.65;8.93;;;14.30;99.90;;;;;;1899144;75;21042;-75
2021/07/10 02:02:23;;;;;;;18.82;10.00;;;14.30;99.90;;;;;;1898930;75;21146;-76
2021/07/10 02:04:49;;;;;;;14.47;9.68;;;14.30;99.90;;;;;;1898986;75;21080;-76
2021/07/10 02:07:16;;;;;;;11.55;9.83;;;14.30;99.90;;;;;;1899138;75;21543;-76
2021/07/10 02:09:42;;;;;;;13.22;9.68;;;14.20;99.90;;;;;;1899211;75;21442;-75
2021/07/10 02:12:08;;;;;;;20.40;9.63;;;14.30;99.90;;;;;;1899015;75;21527;-75
2021/07/10 02:14:34;;;;;;;11.60;9.85;;;14.30;99.90;;;;;;1899026;75;21504;-76
2021/07/10 02:17:00;;;;;;;16.02;9.35;;;14.30;99.90;;;;;;1899041;75;21544;-75
2021/07/10 02:19:26;;;;;;;16.12;9.53;;;14.30;99.90;;;;;;1898572;75;21521;-75
2021/07/10 02:21:52;;;;;;;9.03;8.13;;;14.30;99.90;;;;;;1899028;75;21056;-76
2021/07/10 02:24:18;;;;;;;11.63;8.40;;;14.40;99.90;;;;;;1896289;75;21170;-75
2021/07/10 02:26:45;;;;;;;20.55;9.55;;;14.30;99.90;;;;;;1899029;75;21042;-75
2021/07/10 02:29:11;;;;;;;19.57;10.90;;;14.30;99.90;;;;;;1903787;74;21128;-75
2021/07/10 02:31:37;;;;;;;21.37;11.55;;;14.20;99.90;;;;;;1898503;75;21163;-76
2021/07/10 02:34:03;;;;;;;15.50;11.03;;;14.10;99.90;;;;;;1899040;75;21046;-75
2021/07/10 02:36:29;;;;;;;16.37;11.03;;;14.10;99.90;;;;;;1898008;75;21162;-75
2021/07/10 02:38:55;;;;;;;20.10;11.43;;;14.10;99.90;;;;;;1898921;75;21130;-75
2021/07/10 02:41:21;;;;;;;31.45;11.50;;;14.10;99.90;;;;;;1903186;74;21054;-76
2021/07/10 02:43:47;;;;;;;16.42;11.03;;;14.10;99.90;;;;;;1898938;75;21081;-75
2021/07/10 02:46:16;;;;;;;13.32;10.93;;;14.10;99.90;;;;;;1898933;75;21146;-76
2021/07/10 02:48:41;;;;;;;16.73;12.68;;;14.10;99.90;;;;;;1898623;75;21489;-75
2021/07/10 02:51:07;;;;;;;21.97;12.43;;;14.10;99.90;;;;;;1899059;75;21489;-75
2021/07/10 02:53:34;;;;;;;18.95;11.28;;;14.10;99.90;;;;;;1899038;75;21533;-76
2021/07/10 02:56:00;;;;;;;15.03;10.75;;;14.20;99.90;;;;;;1898891;75;21442;-75
2021/07/10 02:58:26;;;;;;;19.10;12.07;;;14.20;99.90;;;;;;1898829;75;21445;-75
2021/07/10 03:00:52;;;;;;;24.92;12.82;;;14.00;99.90;;;;;;1899049;75;21485;-75
2021/07/10 03:03:18;;;;;;;17.02;12.03;;;14.00;99.90;;;;;;1898891;75;21454;-75
2021/07/10 03:05:44;;;;;;;20.32;11.25;;;14.00;99.90;;;;;;1899079;75;21068;-75
2021/07/10 03:08:10;;;;;;;20.48;9.55;;;14.10;99.90;;;;;;1898958;75;21104;-75
2021/07/10 03:10:37;;;;;;;22.00;11.38;;;14.10;99.90;;;;;;1898928;75;21120;-75
2021/07/10 03:13:03;;;;;;;27.07;11.40;;;14.10;99.90;;;;;;1898991;75;21155;-74
2021/07/10 03:15:29;;;;;;;15.80;9.65;;;14.00;99.90;;;;;;1898905;75;21166;-76
2021/07/10 03:17:55;;;;;;;17.40;10.35;;;14.00;99.90;;;;;;1898909;75;21158;-75
2021/07/10 03:20:21;;;;;;;15.53;11.48;;;14.00;99.90;;;;;;1899118;75;21523;-76
2021/07/10 03:22:47;;;;;;;11.80;10.30;;;13.90;99.90;;;;;;1898857;75;21462;-75
2021/07/10 03:25:13;;;;;;;22.45;10.65;;;13.90;99.90;;;;;;1898936;75;21158;-75
2021/07/10 03:27:40;;;;;;;14.75;10.38;;;13.90;99.90;;;;;;1899008;75;21073;-76
2021/07/10 03:30:06;;;;;;;14.43;10.15;;;14.00;99.90;;;;;;1899027;75;21042;-75
2021/07/10 03:32:32;;;;;;;11.57;9.80;;;14.00;99.90;;;;;;1899004;75;21146;-75
2021/07/10 03:34:58;;;;;;;18.75;10.23;;;14.10;99.90;;;;;;1899018;75;21080;-76
2021/07/10 03:37:24;;;;;;;15.55;11.03;;;13.90;99.90;;;;;;1898810;75;21054;-75
2021/07/10 03:39:50;;;;;;;28.38;10.93;;;13.90;99.90;;;;;;1899008;75;21150;-75
2021/07/10 03:42:16;;;;;;;15.63;9.60;;;13.90;99.90;;;;;;1898806;75;21069;-75
2021/07/10 03:44:43;;;;;;;25.17;10.15;;;13.90;99.90;;;;;;1899115;75;21166;-75
2021/07/10 03:47:09;;;;;;;15.58;9.45;;;13.80;99.90;;;;;;1898910;75;21123;-75
2021/07/10 03:49:35;;;;;;;12.25;9.23;;;13.80;99.90;;;;;;1898980;75;21082;-75
2021/07/10 03:52:01;;;;;;;12.15;8.68;;;13.80;99.90;;;;;;1898811;75;21155;-75
2021/07/10 03:54:27;;;;;;;14.40;9.65;;;13.70;99.90;;;;;;1898732;75;21121;-76
2021/07/10 03:56:53;;;;;;;11.68;9.63;;;13.70;99.90;;;;;;1898924;75;21183;-75
2021/07/10 03:59:19;;;;;;;22.90;8.85;;;13.70;99.90;;;;;;1898805;75;21154;-75
2021/07/10 04:01:45;;;;;;;15.65;9.10;;;13.70;99.90;;;;;;1898517;75;21104;-74
2021/07/10 04:04:11;;;;;;;14.03;9.75;;;13.70;99.90;;;;;;1898815;75;21127;-75
2021/07/10 04:06:38;;;;;;;20.68;9.88;;;13.70;99.90;;;;;;1898957;75;21147;-74
2021/07/10 04:09:04;;;;;;;15.72;10.28;;;13.90;99.90;;;;;;1898945;75;21261;-74
2021/07/10 04:11:30;;;;;;;17.15;9.38;;;13.90;99.90;;;;;;1896487;75;21151;-74
2021/07/10 04:13:56;;;;;;;28.90;9.73;;;13.80;99.90;;;;;;1898671;75;21065;-74
2021/07/10 04:16:22;;;;;;;20.52;9.43;;;13.70;99.90;;;;;;1898657;75;21065;-74
2021/07/10 04:18:48;;;;;;;17.27;10.40;;;13.60;99.90;;;;;;1907894;74;21165;-74
2021/07/10 04:21:14;;;;;;;15.08;8.90;;;13.70;99.90;;;;;;1898941;75;21096;-74
2021/07/10 04:23:41;;;;;;;12.03;9.43;;;13.70;99.90;;;;;;1893355;75;21162;-74
2021/07/10 04:26:07;;;;;;;12.63;8.65;;;13.70;99.90;;;;;;1897250;75;21078;-74
2021/07/10 04:28:33;;;;;;;25.20;9.90;;;13.70;99.90;;;;;;1887167;75;21077;-74
2021/07/10 04:30:59;;;;;;;19.67;9.15;;;13.70;99.90;;;;;;1898931;75;21081;-74
2021/07/10 04:33:25;;;;;;;15.68;9.08;;;13.70;99.90;;;;;;1898794;75;21166;-74
2021/07/10 04:35:51;;;;;;;29.48;9.18;;;13.70;99.90;;;;;;1893566;75;21085;-74
2021/07/10 04:38:17;;;;;;;28.70;9.13;;;13.70;99.90;;;;;;1898797;75;21005;-74
2021/07/10 04:40:43;;;;;;;28.07;8.10;;;13.70;99.90;;;;;;1899067;75;21073;-75
2021/07/10 04:43:11;;;;;;;14.47;8.38;;;13.60;99.90;;;;;;1898766;75;21144;-74
2021/07/10 04:45:37;;;;;;;13.43;9.18;;;13.60;99.90;;;;;;1898876;75;21509;-74
2021/07/10 04:48:03;;;;;;;11.63;8.63;;;13.60;99.90;;;;;;1898890;75;21510;-74
2021/07/10 04:50:29;;;;;;;16.77;8.43;;;13.70;99.90;;;;;;1898716;75;21505;-74
2021/07/10 04:52:55;;;;;;;13.08;8.80;;;13.70;99.90;;;;;;1898914;75;21509;-75
2021/07/10 04:55:22;;;;;;;9.98;8.13;;;13.70;99.90;;;;;;1898777;75;21085;-75
2021/07/10 04:57:48;;;;;;;26.80;9.30;;;13.90;99.90;;;;;;1899045;75;21179;-75
2021/07/10 05:00:14;;;;;;;10.05;7.72;;;13.90;99.90;;;;;;1898787;75;21139;-75
2021/07/10 05:02:40;;;;;;;10.93;8.15;;;13.80;99.90;;;;;;1898715;75;21167;-75
2021/07/10 05:05:06;;;;;;;11.57;8.08;;;13.70;99.90;;;;;;1898855;75;21586;-75
2021/07/10 05:07:32;;;;;;;21.80;8.18;;;13.70;99.90;;;;;;1898861;75;21450;-74
2021/07/10 05:09:58;;;;;;;16.48;7.92;;;13.70;99.90;;;;;;1898890;75;21578;-75
2021/07/10 05:12:25;;;;;;;12.70;8.33;;;13.70;99.90;;;;;;1898942;75;21432;-75
2021/07/10 05:14:51;;;;;;;14.47;8.73;;;13.70;99.90;;;;;;1898904;75;21454;-75
2021/07/10 05:17:17;;;;;;;9.68;8.15;;;13.80;99.90;;;;;;1898895;75;21510;-74
2021/07/10 05:19:43;;;;;;;23.15;6.97;;;13.80;99.90;;;;;;1898927;75;21077;-75
2021/07/10 05:22:09;;;;;;;8.23;6.78;;;13.80;99.90;;;;;;1898769;75;21080;-75
2021/07/10 05:24:35;;;;;;;8.60;6.80;;;13.80;99.90;;;;;;1898869;75;21085;-74
2021/07/10 05:27:02;;;;;;;15.30;7.05;;;13.80;99.90;;;;;;1899047;75;21085;-75
2021/07/10 05:29:28;;;;;;;8.70;7.35;;;13.70;99.90;;;;;;1899029;75;21499;-75
2021/07/10 05:31:55;;;;;;;8.43;7.30;;;13.70;99.90;;;;;;1898930;75;21525;-75
2021/07/10 05:34:21;;;;;;;8.13;7.10;;;13.70;99.90;;;;;;1898937;75;21611;-75
2021/07/10 05:36:48;;;;;;;8.55;7.55;;;13.70;99.90;;;;;;1898988;75;21154;-75
2021/07/10 05:39:14;;;;;;;10.58;7.10;;;13.80;99.90;;;;;;1899036;75;21096;-75
2021/07/10 05:41:40;;;;;;;13.05;7.15;;;13.80;99.90;;;;;;1898997;75;21513;-75
2021/07/10 05:44:06;;;;;;;9.63;7.25;;;13.90;99.90;;;;;;1898901;75;21522;-75
2021/07/10 05:46:32;;;;;;;18.70;7.10;;;13.90;99.90;;;;;;1899175;75;21524;-75
2021/07/10 05:48:58;;;;;;;18.50;7.08;;;14.00;99.90;;;;;;1899033;75;21445;-76
2021/07/10 05:51:24;;;;;;;14.47;7.20;;;14.00;99.90;;;;;;1898926;75;21505;-76
2021/07/10 05:53:51;;;;;;;15.93;7.37;;;13.90;99.90;;;;;;1898489;75;21590;-76
2021/07/10 05:56:17;;;;;;;9.23;6.97;;;14.00;99.90;;;;;;1898921;75;21482;-78
2021/07/10 05:58:43;;;;;;;10.30;6.62;;;14.20;99.90;;;;;;1899129;75;21518;-74
2021/07/10 06:01:09;;;;;;;10.08;6.42;;;14.30;99.90;;;;;;1898957;75;21081;-75
2021/07/10 06:03:35;;;;;;;17.35;8.13;;;14.40;99.90;;;;;;1898983;75;21142;-79
2021/07/10 06:06:01;;;;;;;10.80;8.25;;;14.30;99.90;;;;;;1899101;75;21146;-75
2021/07/10 06:08:27;;;;;;;12.13;7.50;;;14.40;99.90;;;;;;1899040;75;21046;-76
2021/07/10 06:10:53;;;;;;;10.72;7.15;;;14.50;99.90;;;;;;1899052;75;21080;-77
2021/07/10 06:13:20;;;;;;;11.93;7.40;;;14.70;99.90;;;;;;1898977;75;21077;-78
2021/07/10 06:15:46;;;;;;;9.35;7.50;;;15.00;99.90;;;;;;1899015;75;21151;-78
2021/07/10 06:18:12;;;;;;;7.60;6.33;;;15.30;99.90;;;;;;1899005;75;21150;-78
2021/07/10 06:20:39;;;;;;;10.43;6.95;;;15.60;99.90;;;;;;1898969;75;21040;-79
2021/07/10 06:23:05;;;;;;;8.60;6.42;;;15.80;99.90;;;;;;1896378;75;21167;-78
2021/07/10 06:25:31;;;;;;;7.20;6.47;;;15.90;99.90;;;;;;1899166;75;21147;-78
2021/07/10 06:27:57;;;;;;;8.60;7.58;;;15.90;99.90;;;;;;1903136;74;21089;-78
2021/07/10 06:30:23;;;;;;;7.37;5.83;;;16.10;99.90;;;;;;1899108;75;21081;-79
2021/07/10 06:32:50;;;;;;;5.97;5.22;;;17.00;99.90;;;;;;1894659;74;21123;-78
2021/07/10 06:35:16;;;;;;;9.60;6.00;;;17.30;99.90;;;;;;1899310;72;21101;-78
2021/07/10 06:37:42;;;;;;;7.25;5.83;;;17.70;99.90;;;;;;1892877;75;21101;-76
2021/07/10 06:40:08;;;;;;;8.25;6.33;;;18.20;99.90;;;;;;1913502;73;21067;-76
2021/07/10 06:42:34;;;;;;;8.60;5.03;;;18.40;99.90;;;;;;1903079;74;21154;-76
2021/07/10 06:45:00;;;;;;;6.53;4.95;;;18.90;99.90;;;;;;1899099;75;21077;-74
2021/07/10 06:47:26;;;;;;;6.33;5.22;;;19.10;99.90;;;;;;1899131;75;21147;-75
2021/07/10 06:49:52;;;;;;;5.08;4.12;;;19.40;99.90;;;;;;1899083;75;21186;-74
2021/07/10 06:52:19;;;;;;;7.45;4.78;;;19.60;99.90;;;;;;1899092;75;21073;-74
2021/07/10 06:54:45;;;;;;;7.22;4.12;;;19.80;99.90;;;;;;1898653;75;21079;-73
2021/07/10 06:57:11;;;;;;;5.42;4.35;;;20.00;99.90;;;;;;1898990;75;21450;-74
2021/07/10 06:59:37;;;;;;;4.85;4.08;;;20.40;99.90;;;;;;1898924;75;21507;-74
2021/07/10 07:02:03;;;;;;;5.50;4.42;;;21.20;99.90;;;;;;1898089;75;21500;-72
2021/07/10 07:04:29;;;;;;;4.12;3.72;;;20.40;99.90;;;;;;1898993;75;21580;-74
2021/07/10 07:06:55;;;;;;;6.50;4.08;;;20.30;99.90;;;;;;1898975;75;21430;-73
2021/07/10 07:09:21;;;;;;;5.03;4.28;;;21.30;99.90;;;;;;1898936;75;21407;-73
2021/07/10 07:11:50;;;;;;;8.05;4.45;;;20.90;99.90;;;;;;1899036;75;21167;-73
2021/07/10 07:14:15;;;;;;;3.72;3.15;;;21.50;99.90;;;;;;1898756;75;21158;-73
2021/07/10 07:16:42;;;;;;;6.92;4.60;;;21.70;99.90;;;;;;1898906;75;21045;-73
2021/07/10 07:19:08;;;;;;;4.67;4.17;;;21.50;99.90;;;;;;1898971;75;21200;-76
2021/07/10 07:21:34;;;;;;;4.20;3.65;;;21.30;99.90;;;;;;1899066;75;21602;-76
2021/07/10 07:24:00;;;;;;;5.15;4.10;;;22.10;99.90;;;;;;1898958;75;21484;-76
2021/07/10 07:26:26;;;;;;;5.35;4.05;;;21.40;99.90;;;;;;1898992;75;21442;-76
2021/07/10 07:28:52;;;;;;;7.05;3.95;;;21.50;99.90;;;;;;1899042;75;21441;-76
2021/07/10 07:31:18;;;;;;;7.15;3.83;;;22.50;99.90;;;;;;1898956;75;21542;-77
2021/07/10 07:33:44;;;;;;;7.50;3.70;;;22.30;99.90;;;;;;1898965;75;21473;-75
2021/07/10 07:36:11;;;;;;;4.12;3.55;;;22.60;99.90;;;;;;1898892;75;21450;-76
2021/07/10 07:38:37;;;;;;;7.03;3.55;;;23.10;99.90;;;;;;1899023;75;21050;-76
2021/07/10 07:41:03;;;;;;;4.75;3.75;;;22.00;99.90;;;;;;1899106;75;21116;-72
2021/07/10 07:43:29;;;;;;;9.30;4.00;;;22.40;99.90;;;;;;1899049;75;21080;-70
2021/07/10 07:45:55;;;;;;;7.35;4.03;;;22.30;99.90;;;;;;1898996;75;21158;-71
2021/07/10 07:48:21;;;;;;;5.75;3.90;;;22.00;99.90;;;;;;1899040;75;21120;-72
2021/07/10 07:50:47;;;;;;;5.65;3.50;;;22.40;99.90;;;;;;1899079;75;21150;-70
2021/07/10 07:53:19;;;;;;;4.42;3.75;;;22.50;99.90;;;;;;1899044;75;21085;-70
2021/07/10 07:55:42;;;;;;;6.22;3.65;;;22.50;99.90;;;;;;1897862;75;21143;-72
2021/07/10 07:58:08;;;;;;;5.90;3.42;;;22.80;99.90;;;;;;1898910;75;21069;-76
2021/07/10 08:00:34;;;;;;;4.90;3.58;;;22.50;99.90;;;;;;1899009;75;21139;-76
2021/07/10 08:03:00;;;;;;;4.17;3.42;;;22.60;99.90;;;;;;1899015;75;21147;-78
2021/07/10 08:05:26;;;;;;;4.97;3.08;;;22.90;99.90;;;;;;1898931;75;21594;-77
2021/07/10 08:07:53;;;;;;;3.27;3.05;;;23.50;99.90;;;;;;1898870;75;21468;-77
2021/07/10 08:10:19;;;;;;;7.60;3.33;;;23.80;99.90;;;;;;1899052;75;21073;-77
2021/07/10 08:12:46;;;;;;;6.42;3.50;;;23.80;99.90;;;;;;1898948;75;21069;-78
2021/07/10 08:15:14;;;;;;;4.78;3.83;;;23.20;99.90;;;;;;1898973;75;21112;-77
2021/07/10 08:17:40;;;;;;;4.42;3.30;;;23.10;99.90;;;;;;1898941;75;21080;-74
2021/07/10 08:20:06;;;;;;;6.37;3.83;;;22.60;99.90;;;;;;1898918;75;21034;-75
2021/07/10 08:22:32;;;;;;;7.80;3.85;;;23.00;99.90;;;;;;1898863;75;21366;-75
2021/07/10 08:24:59;;;;;;;4.12;3.30;;;22.60;99.90;;;;;;1898933;75;21080;-74
2021/07/10 08:27:25;;;;;;;4.33;3.05;;;22.70;99.90;;;;;;1898795;75;21078;-74
2021/07/10 08:29:51;;;;;;;5.12;3.40;;;22.90;99.90;;;;;;1908677;74;21092;-74
2021/07/10 08:32:17;;;;;;;4.62;3.20;;;22.60;99.90;;;;;;1903106;73;21573;-74
2021/07/10 08:34:43;;;;;;;4.67;3.10;;;22.60;99.90;;;;;;1898938;75;21622;-75
2021/07/10 08:37:10;;;;;;;4.92;3.30;;;22.60;99.90;;;;;;1898406;75;21496;-74
2021/07/10 08:39:36;;;;;;;3.83;2.90;;;22.30;99.90;;;;;;1898998;75;21054;-74
2021/07/10 08:42:02;;;;;;;4.33;3.27;;;22.10;99.90;;;;;;1903216;73;21218;-74
2021/07/10 08:44:29;;;;;;;3.75;3.37;;;22.60;99.90;;;;;;1894080;75;21182;-74
2021/07/10 08:46:55;;;;;;;4.72;3.27;;;22.80;99.90;;;;;;1898428;75;21480;-74
2021/07/10 08:49:21;;;;;;;3.80;2.67;;;22.90;99.90;;;;;;1903234;74;21586;-75
2021/07/10 08:51:47;;;;;;;3.62;3.30;;;23.40;99.90;;;;;;1898955;75;21455;-74
2021/07/10 08:54:13;;;;;;;3.70;2.70;;;23.80;99.90;;;;;;1899078;75;21630;-75
2021/07/10 08:56:39;;;;;;;5.17;2.58;;;24.20;99.90;;;;;;1899076;75;21497;-75
2021/07/10 08:59:05;;;;;;;2.98;2.40;;;24.30;99.90;;;;;;1899026;74;21591;-75
2021/07/10 09:01:31;;;;;;;13.25;5.12;;;23.80;99.90;;;;;;1898994;75;21566;-75
2021/07/10 09:03:58;;;;;;;6.08;2.30;;;24.00;99.90;;;;;;1899339;75;21106;-75
2021/07/10 09:06:24;;;;;;;3.22;2.58;;;24.00;99.90;;;;;;1898524;75;21184;-75
2021/07/10 09:08:50;;;;;;;5.28;2.10;;;24.80;99.90;;;;;;1899194;75;21154;-76
2021/07/10 09:11:17;;;;;;;3.17;2.20;;;25.10;99.90;;;;;;1899018;75;21151;-76
2021/07/10 09:13:43;;;;;;;3.40;1.77;;;24.70;99.90;;;;;;1899186;75;21201;-75
2021/07/10 09:16:10;;;;;;;2.65;1.85;;;24.40;99.90;;;;;;1899096;75;21076;-75
2021/07/10 09:18:36;;;;;;;2.20;1.50;;;24.10;99.90;;;;;;1899290;75;21162;-75
2021/07/10 09:21:02;;;;;;;1.50;1.32;;;24.00;99.90;;;;;;1899051;75;21078;-76
2021/07/10 09:23:28;;;;;;;2.02;1.70;;;24.30;99.90;;;;;;1899257;75;21142;-76
2021/07/10 09:25:54;;;;;;;3.10;1.47;;;24.50;99.90;;;;;;1898986;75;21088;-76
2021/07/10 09:28:20;;;;;;;3.22;1.50;;;25.00;99.90;;;;;;1899214;75;21150;-75
2021/07/10 09:30:46;;;;;;;6.85;1.22;;;25.30;99.90;;;;;;1898976;75;21148;-76
2021/07/10 09:33:13;;;;;;;3.67;1.55;;;24.40;99.90;;;;;;1899248;75;21076;-76
2021/07/10 09:35:39;;;;;;;2.00;1.27;;;24.40;99.90;;;;;;1899176;75;21047;-76
2021/07/10 09:38:05;;;;;;;2.12;1.55;;;25.00;99.90;;;;;;1899307;75;21146;-76
2021/07/10 09:40:32;;;;;;;1.72;1.62;;;25.20;99.90;;;;;;1899178;75;21081;-76
2021/07/10 09:42:59;;;;;;;1.35;1.25;;;25.30;99.90;;;;;;1899049;75;21080;-75
2021/07/10 09:45:26;;;;;;;1.40;1.20;;;25.60;99.90;;;;;;1899716;75;21148;-76
2021/07/10 09:47:52;;;;;;;1.98;1.25;;;25.70;99.90;;;;;;1899205;75;21199;-76
2021/07/10 09:50:19;;;;;;;2.58;1.80;;;25.50;99.90;;;;;;1899349;75;21077;-77
2021/07/10 09:52:45;;;;;;;6.58;1.40;;;25.20;99.90;;;;;;1899027;75;21086;-77
2021/07/10 09:55:11;;;;;;;2.72;1.82;;;25.40;99.90;;;;;;1898967;75;21081;-77
2021/07/10 09:57:37;;;;;;;2.25;1.45;;;25.90;99.90;;;;;;1899135;75;21081;-77
2021/07/10 10:00:03;;;;;;;1.82;1.45;;;25.60;99.90;;;;;;1900471;75;21219;-76
2021/07/10 10:02:29;;;;;;;1.55;1.25;;;25.80;99.90;;;;;;1900365;75;21484;-76
2021/07/10 10:04:55;;;;;;;2.45;1.40;;;26.00;99.90;;;;;;1899043;75;21472;-77
2021/07/10 10:07:22;;;;;;;2.35;1.50;;;26.10;99.90;;;;;;1898925;75;21474;-80
2021/07/10 10:09:48;;;;;;;1.62;1.00;;;26.40;99.90;;;;;;1899033;75;21045;-77
2021/07/10 10:12:14;;;;;;;12.15;1.37;;;26.00;99.90;;;;;;1898776;75;21120;-77
2021/07/10 10:14:40;;;;;;;1.35;1.20;;;25.90;99.90;;;;;;1899011;75;21077;-76
2021/07/10 10:17:07;;;;;;;2.08;1.15;;;25.70;99.90;;;;;;1899178;75;21154;-77
2021/07/10 10:19:33;;;;;;;1.60;1.10;;;25.70;99.90;;;;;;1903346;74;21132;-77
2021/07/10 10:21:59;;;;;;;3.25;1.22;;;25.80;99.90;;;;;;1898996;75;21500;-77
2021/07/10 10:24:26;;;;;;;2.70;1.30;;;25.70;99.90;;;;;;1899091;75;21473;-77
2021/07/10 10:26:52;;;;;;;5.87;1.57;;;25.10;99.90;;;;;;1899133;75;21422;-77
2021/07/10 10:29:18;;;;;;;6.08;1.40;;;24.80;99.90;;;;;;1899022;75;21562;-77
2021/07/10 10:31:44;;;;;;;2.08;1.50;;;24.90;99.90;;;;;;1898648;75;21528;-77
2021/07/10 10:34:10;;;;;;;3.02;1.42;;;25.20;99.90;;;;;;1898901;75;21073;-77
2021/07/10 10:36:36;;;;;;;5.35;1.42;;;25.70;99.90;;;;;;1903349;74;21058;-77
2021/07/10 10:39:02;;;;;;;1.20;1.10;;;25.70;99.90;;;;;;1899188;75;21162;-76
2021/07/10 10:41:29;;;;;;;4.00;1.20;;;25.90;99.90;;;;;;1898505;75;21084;-77
2021/07/10 10:43:56;;;;;;;2.45;1.37;;;25.80;99.90;;;;;;1902741;74;21091;-77
2021/07/10 10:46:25;;;;;;;3.95;1.77;;;26.00;99.90;;;;;;1904631;74;21085;-77
2021/07/10 10:48:51;;;;;;;3.85;1.37;;;26.70;99.90;;;;;;1903682;73;21054;-77
2021/07/10 10:51:17;;;;;;;2.40;1.45;;;26.50;99.90;;;;;;1899074;75;21138;-77
2021/07/10 10:53:43;;;;;;;1.52;1.40;;;25.90;99.90;;;;;;1896578;75;21202;-77
2021/07/10 10:56:09;;;;;;;1.87;1.50;;;26.10;99.90;;;;;;1898945;75;21135;-77
2021/07/10 10:58:35;;;;;;;3.62;1.77;;;26.50;99.90;;;;;;1899009;75;21046;-77
2021/07/10 11:01:02;;;;;;;1.72;1.32;;;26.90;99.90;;;;;;1899009;75;21072;-76
2021/07/10 11:03:28;;;;;;;1.92;1.60;;;26.80;99.90;;;;;;1899088;75;21081;-77
2021/07/10 11:05:54;;;;;;;1.32;1.22;;;27.30;99.90;;;;;;1900497;75;21191;-76
2021/07/10 11:08:20;;;;;;;2.05;1.40;;;27.50;99.90;;;;;;1902630;74;21060;-77
2021/07/10 11:10:49;;;;;;;4.80;1.72;;;27.20;99.90;;;;;;1900229;74;21072;-77
2021/07/10 11:13:15;;;;;;;1.52;1.42;;;26.90;99.90;;;;;;1899253;75;21449;-76
2021/07/10 11:15:41;;;;;;;1.72;1.60;;;26.80;99.90;;;;;;1899052;75;21522;-76
2021/07/10 11:18:07;;;;;;;1.52;1.42;;;26.70;99.90;;;;;;1899279;75;21445;-77
2021/07/10 11:20:34;;;;;;;9.25;1.87;;;26.70;99.90;;;;;;1899122;75;21565;-76
2021/07/10 11:23:01;;;;;;;8.90;1.50;;;26.50;99.90;;;;;;1898872;75;21548;-76
2021/07/10 11:25:27;;;;;;;2.25;1.35;;;26.80;99.90;;;;;;1899096;75;21166;-77
2021/07/10 11:27:53;;;;;;;8.15;1.57;;;26.70;99.90;;;;;;1898907;75;21108;-76
2021/07/10 11:30:19;;;;;;;2.35;1.42;;;26.50;99.90;;;;;;1899069;75;21081;-77
2021/07/10 11:32:45;;;;;;;1.42;1.32;;;26.80;99.90;;;;;;1899081;75;21461;-77
2021/07/10 11:35:11;;;;;;;1.50;1.40;;;26.50;99.90;;;;;;1898899;75;21477;-77
2021/07/10 11:37:38;;;;;;;2.25;1.45;;;26.40;99.90;;;;;;1899014;75;21496;-77
2021/07/10 11:40:04;;;;;;;2.55;1.70;;;26.80;99.90;;;;;;1898864;75;21638;-77
2021/07/10 11:42:31;;;;;;;1.62;1.30;;;27.20;99.90;;;;;;1899134;75;21046;-77
2021/07/10 11:45:04;;;;;;;2.12;1.65;;;27.20;99.90;;;;;;1898816;75;21091;-77
2021/07/10 11:47:27;;;;;;;2.80;1.50;;;27.30;99.90;;;;;;1898346;75;21398;-77
2021/07/10 11:49:53;;;;;;;2.70;1.55;;;27.70;99.90;;;;;;1899205;75;21584;-77
2021/07/10 11:52:20;;;;;;;3.00;1.62;;;27.00;99.90;;;;;;1898873;75;21578;-77
2021/07/10 11:54:46;;;;;;;3.47;1.25;;;27.40;99.90;;;;;;1899066;75;21364;-77
2021/07/10 11:57:12;;;;;;;1.60;1.25;;;27.50;99.90;;;;;;1898908;75;21155;-77
2021/07/10 11:59:38;;;;;;;1.95;1.27;;;27.60;99.90;;;;;;1899137;75;21146;-77
2021/07/10 12:02:04;;;;;;;2.02;1.07;;;28.20;99.90;;;;;;1898843;75;21121;-77
2021/07/10 12:04:30;;;;;;;1.32;1.10;;;27.90;99.90;;;;;;1898986;75;21076;-78
2021/07/10 12:06:57;;;;;;;1.12;0.90;;;27.60;99.90;;;;;;1898825;75;21147;-78
2021/07/10 12:09:23;;;;;;;1.27;1.10;;;26.30;99.90;;;;;;1898937;75;21089;-77
2021/07/10 12:11:50;;;;;;;1.40;1.30;;;26.70;99.90;;;;;;1899140;75;21150;-78
2021/07/10 12:14:16;;;;;;;1.67;1.10;;;27.20;99.90;;;;;;1898865;75;21077;-78
2021/07/10 12:16:42;;;;;;;5.35;1.30;;;27.70;99.90;;;;;;1899055;75;21084;-77
2021/07/10 12:19:08;;;;;;;1.15;1.10;;;28.00;99.90;;;;;;1898897;75;21049;-77
2021/07/10 12:21:34;;;;;;;2.40;1.12;;;28.10;99.90;;;;;;1899032;75;21116;-76
2021/07/10 12:24:00;;;;;;;2.80;1.20;;;27.70;99.90;;;;;;1898874;75;21085;-77
2021/07/10 12:26:31;;;;;;;1.85;1.10;;;27.90;99.90;;;;;;1899021;75;21088;-77
2021/07/10 12:28:54;;;;;;;3.70;1.25;;;28.30;99.90;;;;;;1898096;75;21100;-77
2021/07/10 12:31:21;;;;;;;3.17;1.10;;;29.10;99.90;;;;;;1899249;75;21430;-77
2021/07/10 12:33:47;;;;;;;3.50;1.55;;;28.90;99.90;;;;;;1898974;75;21073;-77